Terminal Aerodrome Forecast
Issued by NWS

Current Version | Previous Version | Text Only | Print | Product List | Glossary Off
Versions: 1 2 3 4 5 6 7 8 9 10 11 12 13 14 15 16 17 18 19 20

000
FTUS41 KPBZ 231000 AAA
TAFHLG
TAF AMD
KHLG 231027Z 2310/2406 08005KT 4SM -RA BR FEW045 BKN060 OVC070
     FM231145 17010KT P6SM OVC040
     FM240500 15008KT 5SM -SHRA BR BKN015=

USA.gov is the U.S. government's official web portal to all federal, state and local government web resources and services.